Terminal Aerodrome Forecast
Issued by NWS Brownsville, TX

Home | Current Version | Previous Version | Text Only | Print | Product List | Glossary On
Versions: 1 2 3 4 5 6 7 8 9 10 11 12 13 14 15 16 17 18 19 20 21 22 23 24 25 26 27
452
FTUS44 KBRO 241145 CCA
TAFMFE
TAF COR
KMFE 241145Z 2412/2512 15011KT 5SM BR BKN008 OVC018
     FM241700 13015G24KT P6SM SCT030 BKN050
     FM250200 12011KT P6SM BKN025
      TEMPO 2509/2512 BKN015=

USA.gov is the U.S. government's official web portal to all federal, state and local government web resources and services.